Peotone Weather
Station Historical Data
 
Daily Summary for June 27, 2016 Units:  English    Metric   Both
« Previous Day
Next Day »
Daily Weekly Monthly Yearly Custom
  Current: High: Low: Average:
Temperature: 73.6 °F 73.8 °F 66.8 °F 70.1 °F
Dew Point: 67.1 °F 67.6 °F 63.0 °F 65 °F
Humidity: 80% 90% 80% 84%
Wind Speed: 3.4mph 5.8mph 0.0mph 2mph
Wind Gust: 9.2mph 9.2mph - -
WindWSW - - WNW
Pressure: 30.03 in 30.03 in 30.00 in -
Precipitation: 0.00 in      
Historical Graphs
 
 
Tabular Data for June 27, 2016
Time Temperature Dew Point Pressure Wind Wind Speed Wind Gust Humidity Rainfall Rate (Hourly) solar Conditions
00:00 73.8 °F 67.6 °F 30.01 in WNW 2.3 mph 4.6 mph 81% 0.00 in 0.00 W/m2
00:04 73.7 °F 67.5 °F 30.01 in WNW 2.3 mph 4.6 mph 81% 0.00 in 0.00 W/m2
00:05 73.7 °F 67.5 °F 30.01 in WNW 1.1 mph 4.6 mph 81% 0.00 in 0.00 W/m2
00:09 73.7 °F 67.5 °F 30.01 in Calm   1.1 mph 81% 0.00 in 0.00 W/m2
00:10 73.7 °F 67.5 °F 30.01 in WNW 2.3 mph 3.5 mph 81% 0.00 in 0.00 W/m2
00:15 73.3 °F 67.1 °F 30.01 in Calm   2.3 mph 81% 0.00 in 0.00 W/m2
00:20 73.0 °F 67.2 °F 30.01 in Calm     82% 0.00 in 0.00 W/m2
00:25 73.0 °F 67.2 °F 30.01 in Calm   1.1 mph 82% 0.00 in 0.00 W/m2
00:30 73.0 °F 67.2 °F 30.02 in Calm   1.1 mph 82% 0.00 in 0.00 W/m2
00:35 73.0 °F 67.2 °F 30.02 in Calm   1.1 mph 82% 0.00 in 0.00 W/m2
00:40 72.9 °F 66.7 °F 30.02 in Calm     81% 0.00 in 0.00 W/m2
00:45 72.8 °F 66.6 °F 30.01 in Calm     81% 0.00 in 0.00 W/m2
00:50 72.6 °F 66.4 °F 30.01 in Calm     81% 0.00 in 0.00 W/m2
00:55 72.5 °F 66.7 °F 30.01 in Calm   1.1 mph 82% 0.00 in 0.00 W/m2
01:00 72.2 °F 66.4 °F 30.01 in Calm     82% 0.00 in 0.00 W/m2
01:05 72.0 °F 65.9 °F 30.01 in Calm   1.1 mph 81% 0.00 in 0.00 W/m2
01:10 71.8 °F 66.0 °F 30.01 in Calm     82% 0.00 in 0.00 W/m2
01:15 71.6 °F 65.8 °F 30.01 in Calm     82% 0.00 in 0.00 W/m2
01:20 71.3 °F 65.5 °F 30.01 in Calm     82% 0.00 in 0.00 W/m2
01:25 71.2 °F 65.4 °F 30.01 in Calm     82% 0.00 in 0.00 W/m2
01:30 71.0 °F 65.2 °F 30.01 in Calm     82% 0.00 in 0.00 W/m2
01:35 70.8 °F 65.4 °F 30.01 in Calm     83% 0.00 in 0.00 W/m2
01:40 70.6 °F 65.5 °F 30.01 in WNW 2.3 mph 4.6 mph 84% 0.00 in 0.00 W/m2
01:45 70.4 °F 65.3 °F 30.01 in WNW 3.5 mph 4.6 mph 84% 0.00 in 0.00 W/m2
01:46 70.4 °F 65.3 °F 30.01 in WNW 3.4 mph 4.6 mph 84% 0.00 in 0.00 W/m2
01:50 70.3 °F 65.2 °F 30.01 in WNW 2.3 mph 4.6 mph 84% 0.00 in 0.00 W/m2
01:51 70.3 °F 65.2 °F 30.01 in WNW 2.3 mph 4.6 mph 84% 0.00 in 0.00 W/m2
01:55 70.3 °F 65.2 °F 30.01 in WNW 2.3 mph 4.6 mph 84% 0.00 in 0.00 W/m2
01:56 70.3 °F 65.2 °F 30.01 in WNW 2.3 mph 4.6 mph 84% 0.00 in 0.00 W/m2
02:00 70.2 °F 65.1 °F 30.01 in WNW 2.3 mph 4.6 mph 84% 0.00 in 0.00 W/m2
02:01 70.2 °F 65.1 °F 30.01 in WNW 2.3 mph 4.6 mph 84% 0.00 in 0.00 W/m2
02:05 70.2 °F 64.8 °F 30.02 in WNW 2.3 mph 4.6 mph 83% 0.00 in 0.00 W/m2
02:06 70.2 °F 64.8 °F 30.02 in WNW 2.3 mph 2.3 mph 83% 0.00 in 0.00 W/m2
02:10 70.2 °F 64.8 °F 30.02 in WNW 2.3 mph 3.5 mph 83% 0.00 in 0.00 W/m2
02:11 70.2 °F 64.8 °F 30.02 in WNW 2.3 mph 3.4 mph 83% 0.00 in 0.00 W/m2
02:15 70.2 °F 64.8 °F 30.02 in WNW 1.1 mph 3.5 mph 83% 0.00 in 0.00 W/m2
02:16 70.2 °F 64.8 °F 30.02 in WNW 1.1 mph 3.4 mph 83% 0.00 in 0.00 W/m2
02:20 70.2 °F 64.8 °F 30.02 in WNW 3.5 mph 4.6 mph 83% 0.00 in 0.00 W/m2
02:21 70.2 °F 64.8 °F 30.02 in WNW 3.4 mph 4.6 mph 83% 0.00 in 0.00 W/m2
02:25 70.2 °F 64.4 °F 30.01 in WNW 3.5 mph 5.8 mph 82% 0.00 in 0.00 W/m2
02:26 70.2 °F 64.4 °F 30.01 in WNW 3.4 mph 5.8 mph 82% 0.00 in 0.00 W/m2
02:30 70.2 °F 64.4 °F 30.02 in WNW 4.6 mph 5.8 mph 82% 0.00 in 0.00 W/m2
02:31 70.2 °F 64.4 °F 30.02 in WNW 4.6 mph 5.8 mph 82% 0.00 in 0.00 W/m2
02:35 70.2 °F 64.4 °F 30.01 in WNW 5.8 mph 5.8 mph 82% 0.00 in 0.00 W/m2
02:36 70.2 °F 64.4 °F 30.01 in WNW 5.8 mph 5.8 mph 82% 0.00 in 0.00 W/m2
02:40 70.2 °F 64.4 °F 30.01 in WNW 2.3 mph 5.8 mph 82% 0.00 in 0.00 W/m2
02:41 70.2 °F 64.4 °F 30.01 in WNW 1.1 mph 2.3 mph 82% 0.00 in 0.00 W/m2
02:45 70.2 °F 64.4 °F 30.01 in WNW 1.1 mph 3.5 mph 82% 0.00 in 0.00 W/m2
02:46 70.2 °F 64.4 °F 30.01 in WNW 1.1 mph 1.1 mph 82% 0.00 in 0.00 W/m2
02:50 70.2 °F 64.4 °F 30.01 in WNW 2.3 mph 3.5 mph 82% 0.00 in 0.00 W/m2
02:51 70.2 °F 64.4 °F 30.01 in WNW 3.4 mph 3.4 mph 82% 0.00 in 0.00 W/m2
02:55 70.1 °F 64.4 °F 30.01 in WNW 3.5 mph 5.8 mph 82% 0.00 in 0.00 W/m2
02:56 70.1 °F 64.4 °F 30.01 in WNW 1.1 mph 3.4 mph 82% 0.00 in 0.00 W/m2
03:04 70.1 °F 64.4 °F 30.01 in WNW 2.3 mph 2.3 mph 82% 0.00 in 0.00 W/m2
03:09 70.0 °F 64.3 °F 30.01 in WNW 3.4 mph 4.6 mph 82% 0.00 in 0.00 W/m2
03:14 69.9 °F 64.2 °F 30.01 in WNW 4.6 mph 4.6 mph 82% 0.00 in 0.00 W/m2
03:19 69.8 °F 64.1 °F 30.01 in WNW 3.4 mph 4.6 mph 82% 0.00 in 0.00 W/m2
03:24 69.7 °F 64.3 °F 30.01 in WNW 3.4 mph 5.8 mph 83% 0.00 in 0.00 W/m2
03:29 69.6 °F 64.2 °F 30.01 in WNW 3.4 mph 4.6 mph 83% 0.00 in 0.00 W/m2
03:34 69.5 °F 64.1 °F 30.01 in WNW 2.3 mph 4.6 mph 83% 0.00 in 0.00 W/m2
03:39 69.4 °F 64.4 °F 30.01 in WNW 2.3 mph 5.8 mph 84% 0.00 in 0.00 W/m2
03:45 69.3 °F 64.3 °F 30.01 in WNW 2.3 mph 4.6 mph 84% 0.00 in 0.00 W/m2
03:50 69.2 °F 64.2 °F 30.01 in WNW 3.4 mph 3.4 mph 84% 0.00 in 0.00 W/m2
03:55 69.1 °F 64.1 °F 30.01 in WNW 3.4 mph 4.6 mph 84% 0.00 in 0.00 W/m2
04:00 69.0 °F 64.0 °F 30.00 in WNW 2.3 mph 5.8 mph 84% 0.00 in 0.00 W/m2
04:05 68.9 °F 64.2 °F 30.00 in WNW 2.3 mph 3.4 mph 85% 0.00 in 0.00 W/m2
04:10 68.8 °F 64.1 °F 30.00 in Calm   4.6 mph 85% 0.00 in 0.00 W/m2
04:15 68.7 °F 64.0 °F 30.00 in WNW 2.3 mph 3.4 mph 85% 0.00 in 0.00 W/m2
04:20 68.6 °F 63.9 °F 30.00 in WNW 2.3 mph 2.3 mph 85% 0.00 in 0.00 W/m2
04:25 68.5 °F 64.2 °F 30.00 in WNW 2.3 mph 3.4 mph 86% 0.00 in 0.00 W/m2
04:30 68.4 °F 64.1 °F 30.00 in WNW 4.6 mph 4.6 mph 86% 0.00 in 0.00 W/m2
04:35 68.3 °F 64.0 °F 30.01 in Calm   2.3 mph 86% 0.00 in 0.00 W/m2
04:40 68.2 °F 63.9 °F 30.01 in WNW 1.1 mph 3.4 mph 86% 0.00 in 0.00 W/m2
04:45 68.1 °F 63.8 °F 30.01 in WNW 2.3 mph 2.3 mph 86% 0.00 in 0.00 W/m2
04:50 68.0 °F 63.7 °F 30.01 in Calm   1.1 mph 86% 0.00 in 0.00 W/m2
04:55 67.9 °F 63.6 °F 30.01 in Calm     86% 0.00 in 0.00 W/m2
05:00 67.8 °F 63.5 °F 30.01 in Calm   2.3 mph 86% 0.00 in 0.00 W/m2
05:05 67.7 °F 63.4 °F 30.01 in Calm   3.4 mph 86% 0.00 in 0.00 W/m2
05:11 67.5 °F 63.2 °F 30.01 in Calm     86% 0.00 in 0.00 W/m2
05:16 67.4 °F 63.1 °F 30.01 in Calm     86% 0.00 in 0.00 W/m2
05:21 67.3 °F 63.3 °F 30.01 in Calm     87% 0.00 in 0.00 W/m2
05:26 67.1 °F 63.1 °F 30.02 in WNW 3.4 mph 3.4 mph 87% 0.00 in 5.00 W/m2
05:31 67.0 °F 63.0 °F 30.02 in WNW 3.4 mph 4.6 mph 87% 0.00 in 7.00 W/m2
05:36 66.9 °F 63.2 °F 30.02 in WNW 3.4 mph 3.4 mph 88% 0.00 in 9.00 W/m2
05:41 66.8 °F 63.5 °F 30.02 in Calm     89% 0.00 in 12.00 W/m2
05:46 66.8 °F 63.5 °F 30.02 in WNW 2.3 mph 3.4 mph 89% 0.00 in 14.00 W/m2
05:51 66.8 °F 63.8 °F 30.02 in WNW 1.1 mph 2.3 mph 90% 0.00 in 16.00 W/m2
05:56 66.9 °F 63.9 °F 30.02 in WNW 1.1 mph 2.3 mph 90% 0.00 in 19.00 W/m2
06:01 67.0 °F 64.0 °F 30.02 in WNW 2.3 mph 4.6 mph 90% 0.00 in 21.00 W/m2
06:06 67.1 °F 64.1 °F 30.02 in West 3.4 mph 5.8 mph 90% 0.00 in 26.00 W/m2
06:12 67.3 °F 64.0 °F 30.02 in West 3.4 mph 3.4 mph 89% 0.00 in 32.00 W/m2
06:17 67.5 °F 64.2 °F 30.02 in Calm   2.3 mph 89% 0.00 in 35.00 W/m2
06:22 67.7 °F 64.3 °F 30.02 in West 2.3 mph 5.8 mph 89% 0.00 in 125.00 W/m2
06:27 67.9 °F 64.5 °F 30.02 in West 2.3 mph 3.4 mph 89% 0.00 in 156.00 W/m2
06:32 68.1 °F 64.4 °F 30.02 in West 3.4 mph 3.4 mph 88% 0.00 in 171.00 W/m2
06:37 68.3 °F 64.6 °F 30.02 in Calm   2.3 mph 88% 0.00 in 185.00 W/m2
06:42 68.6 °F 64.9 °F 30.02 in West 2.3 mph 4.6 mph 88% 0.00 in 155.00 W/m2
06:47 68.9 °F 64.9 °F 30.02 in Calm   1.1 mph 87% 0.00 in 53.00 W/m2
06:52 69.2 °F 65.2 °F 30.02 in West 4.6 mph 4.6 mph 87% 0.00 in 236.00 W/m2
06:57 69.6 °F 65.6 °F 30.03 in Calm   4.6 mph 87% 0.00 in 260.00 W/m2
07:02 70.0 °F 65.6 °F 30.03 in West 3.4 mph 3.4 mph 86% 0.00 in 290.00 W/m2
07:07 70.3 °F 65.9 °F 30.03 in WSW 3.4 mph 4.6 mph 86% 0.00 in 323.00 W/m2
07:12 70.8 °F 66.4 °F 30.02 in SW 2.3 mph 5.8 mph 86% 0.00 in 353.00 W/m2
07:17 71.3 °F 65.9 °F 30.03 in West 2.3 mph 5.8 mph 83% 0.00 in 360.00 W/m2
07:22 71.9 °F 66.1 °F 30.02 in West 3.4 mph 5.8 mph 82% 0.00 in 188.00 W/m2
07:28 72.2 °F 66.4 °F 30.02 in WSW 3.4 mph 6.9 mph 82% 0.00 in 204.00 W/m2
07:33 72.5 °F 66.3 °F 30.02 in West 3.4 mph 5.8 mph 81% 0.00 in 209.00 W/m2
07:38 72.8 °F 66.6 °F 30.03 in West 4.6 mph 5.8 mph 81% 0.00 in 297.00 W/m2
07:43 73.0 °F 66.8 °F 30.03 in WSW 4.6 mph 6.9 mph 81% 0.00 in 341.00 W/m2
07:48 73.3 °F 67.1 °F 30.03 in West 4.6 mph 8.1 mph 81% 0.00 in 374.00 W/m2
07:53 73.6 °F 67.1 °F 30.03 in WSW 3.4 mph 9.2 mph 80% 0.00 in 374.00 W/m2
peotoneweather.com
Compliments of Weather Underground - 1 mb